Home   Weather   USA   Fall River   Past weeks
Flag for USA

Past Weather in Fall River, Massachusetts, USA — Yesterday and Last 2 Weeks

Currently: 69 °F. Fog. (Weather station: New Bedford Regional Airport, USA). See more current weather

Past Weather in Fall River — Graph

°F

Fall River Temperature Yesterday

Maximum temperature yesterday: 75 °F (at 11:53 am)
Minimum temperature yesterday: 67 °F (at 12:53 am)
Average temperature yesterday: 70 °F

High & Low Weather Summary for the Past Weeks

 TemperatureHumidityPressure
High89 °F (Jun 9, 2:53 pm)100% (Jun 11, 4:53 am)30.11 "Hg (Jun 11, 4:53 am)
Low45 °F (Jun 11, 4:53 am)29% (Jun 17, 2:53 pm)29.65 "Hg (Jun 22, 12:30 am)
Average68 °F75%29.88 "Hg
* Reported Jun 7 12:53 am — Jun 22 12:30 am, Fall River. Weather by CustomWeather, © 2021

Note: Actual official high and low records may vary slightly from our data, if they occured in-between our weather recording intervals... More about our weather records

Fall River Weather History for the Previous 24 Hours

Scroll right to see more
 ConditionsComfort  
Time TempWeatherWind HumidityBarometerVisibility
12:30 am
Tue, Jun 22
70 °FFog.6 mph93%29.65 "Hg10 mi
11:53 pm
Mon, Jun 21
70 °FFog.7 mph97%29.67 "Hg10 mi
10:53 pm71 °FFog.13 mph93%29.67 "Hg10 mi
9:53 pm71 °FFog.10 mph93%29.67 "Hg10 mi
9:30 pm70 °FFog.9 mph93%29.67 "Hg10 mi
8:53 pm71 °FFog.8 mph93%29.66 "Hg10 mi
7:53 pm73 °FFog.14 mph88%29.66 "Hg10 mi
7:02 pm73 °FFog.12 mph90%29.66 "Hg10 mi
6:53 pm73 °FFog.10 mph90%29.65 "Hg8 mi
6:44 pm72 °FFog.12 mph93%29.66 "Hg4 mi
6:30 pm71 °FFog.10 mph96%29.67 "Hg2 mi
6:04 pm71 °FFog.12 mph96%29.68 "Hg2 mi
5:53 pm71 °FFog.12 mph96%29.68 "Hg5 mi
4:53 pm72 °FFog.10 mph93%29.69 "Hg6 mi
3:53 pm73 °FFog.13 mph90%29.70 "Hg7 mi
2:53 pm73 °FFog.14 mph90%29.71 "Hg3 mi
1:53 pm73 °FLow clouds.10 mph90%29.73 "Hg10 mi
1:20 pm72 °FLow clouds.9 mph91%29.75 "Hg10 mi
12:53 pm72 °FLow clouds.9 mph91%29.76 "Hg10 mi
11:53 am75 °FLow clouds.13 mph85%29.77 "Hg10 mi
10:53 am72 °FLow clouds.13 mph91%29.78 "Hg10 mi
9:53 am72 °FLow clouds.13 mph87%29.78 "Hg10 mi
9:17 am70 °FFog.13 mph93%29.80 "Hg4 mi
8:53 am70 °FLow clouds.13 mph90%29.80 "Hg2 mi
8:02 am70 °FLow clouds.8 mph93%29.80 "Hg2 mi
7:53 am70 °FLow clouds.7 mph93%29.80 "Hg10 mi
7:21 am68 °FFog.8 mph100%29.80 "Hg3 mi
7:09 am68 °FFog.8 mph100%29.80 "Hg1 mi
6:53 am68 °FFog.6 mph100%29.79 "Hg1 mi
5:53 am68 °FFog.8 mph96%29.78 "Hg1 mi
5:33 am68 °FFog.6 mph96%29.78 "Hg2 mi
4:53 am68 °FFog.8 mph96%29.79 "Hg5 mi
3:53 am67 °FFog.7 mph97%29.79 "Hg5 mi
3:07 am67 °FFog.5 mph97%29.79 "Hg6 mi
2:53 am67 °FPassing clouds.5 mph97%29.78 "Hg7 mi
1:53 am67 °FClear.No wind93%29.79 "Hg10 mi
Weather by CustomWeather, © 2021

See weather overview